sensor_id;sensor_type;location;lat;lon;timestamp;pressure;altitude;pressure_sealevel;temperature;humidity
38786;BME280;24535;45.508;12.252;2022-09-09T00:04:48;101153.59;;;26.05;61.47
38786;BME280;24535;45.508;12.252;2022-09-09T00:07:23;101151.47;;;26.00;61.53
38786;BME280;24535;45.508;12.252;2022-09-09T00:15:25;101141.13;;;25.82;62.07
38786;BME280;24535;45.508;12.252;2022-09-09T00:18:11;101144.41;;;25.78;62.22
38786;BME280;24535;45.508;12.252;2022-09-09T00:21:06;101144.31;;;25.71;62.59
38786;BME280;24535;45.508;12.252;2022-09-09T00:23:38;101146.56;;;25.68;62.51
38786;BME280;24535;45.508;12.252;2022-09-09T00:29:10;101143.41;;;25.64;63.06
38786;BME280;24535;45.508;12.252;2022-09-09T00:31:46;101134.22;;;25.58;62.79
38786;BME280;24535;45.508;12.252;2022-09-09T00:34:18;101143.34;;;25.57;62.65
38786;BME280;24535;45.508;12.252;2022-09-09T00:36:48;101145.84;;;25.59;62.80
38786;BME280;24535;45.508;12.252;2022-09-09T00:39:48;101145.66;;;25.60;63.13
38786;BME280;24535;45.508;12.252;2022-09-09T00:42:18;101144.81;;;25.60;62.71
38786;BME280;24535;45.508;12.252;2022-09-09T00:47:49;101143.13;;;25.59;62.86
38786;BME280;24535;45.508;12.252;2022-09-09T00:51:17;101144.81;;;25.60;63.05
38786;BME280;24535;45.508;12.252;2022-09-09T00:58:27;101138.25;;;25.48;62.84
38786;BME280;24535;45.508;12.252;2022-09-09T01:06:28;101137.53;;;25.39;63.33
38786;BME280;24535;45.508;12.252;2022-09-09T01:09:18;101149.09;;;25.33;63.55
38786;BME280;24535;45.508;12.252;2022-09-09T01:14:48;101153.47;;;25.19;63.55
38786;BME280;24535;45.508;12.252;2022-09-09T01:17:31;101150.69;;;25.12;63.61
38786;BME280;24535;45.508;12.252;2022-09-09T01:20:15;101156.25;;;25.11;63.89
38786;BME280;24535;45.508;12.252;2022-09-09T01:22:47;101152.94;;;25.09;63.77
38786;BME280;24535;45.508;12.252;2022-09-09T01:25:56;101155.63;;;25.09;63.98
38786;BME280;24535;45.508;12.252;2022-09-09T01:28:29;101147.88;;;25.06;63.62
38786;BME280;24535;45.508;12.252;2022-09-09T01:30:56;101150.56;;;25.06;63.61
38786;BME280;24535;45.508;12.252;2022-09-09T01:33:22;101148.25;;;25.03;63.52
38786;BME280;24535;45.508;12.252;2022-09-09T01:35:59;101147.25;;;25.04;63.48
38786;BME280;24535;45.508;12.252;2022-09-09T01:38:28;101153.47;;;25.04;63.39
38786;BME280;24535;45.508;12.252;2022-09-09T01:40:55;101147.88;;;25.06;63.22
38786;BME280;24535;45.508;12.252;2022-09-09T01:43:25;101143.16;;;25.08;63.15
38786;BME280;24535;45.508;12.252;2022-09-09T01:45:53;101146.50;;;25.10;63.01
38786;BME280;24535;45.508;12.252;2022-09-09T01:48:21;101136.91;;;25.07;62.93
38786;BME280;24535;45.508;12.252;2022-09-09T01:50:48;101144.97;;;25.07;63.30
38786;BME280;24535;45.508;12.252;2022-09-09T01:53:14;101146.00;;;25.06;63.27
38786;BME280;24535;45.508;12.252;2022-09-09T01:55:48;101139.59;;;25.07;63.09
38786;BME280;24535;45.508;12.252;2022-09-09T02:07:10;101134.13;;;25.01;63.19
38786;BME280;24535;45.508;12.252;2022-09-09T02:09:40;101125.38;;;24.99;62.88
38786;BME280;24535;45.508;12.252;2022-09-09T02:12:16;101130.13;;;24.97;63.63
38786;BME280;24535;45.508;12.252;2022-09-09T02:15:00;101122.41;;;24.94;63.50
38786;BME280;24535;45.508;12.252;2022-09-09T02:17:32;101121.78;;;24.91;63.47
38786;BME280;24535;45.508;12.252;2022-09-09T02:20:05;101109.72;;;24.87;63.77
38786;BME280;24535;45.508;12.252;2022-09-09T02:22:33;101114.22;;;24.87;63.67
38786;BME280;24535;45.508;12.252;2022-09-09T02:25:01;101120.50;;;24.87;63.77
38786;BME280;24535;45.508;12.252;2022-09-09T02:27:29;101115.09;;;24.87;63.86
38786;BME280;24535;45.508;12.252;2022-09-09T02:29:56;101124.84;;;24.88;63.84
38786;BME280;24535;45.508;12.252;2022-09-09T02:32:25;101114.06;;;24.88;63.64
38786;BME280;24535;45.508;12.252;2022-09-09T02:34:58;101109.50;;;24.89;63.74
38786;BME280;24535;45.508;12.252;2022-09-09T02:37:31;101118.63;;;24.88;63.62
38786;BME280;24535;45.508;12.252;2022-09-09T02:40:02;101101.63;;;24.87;63.45
38786;BME280;24535;45.508;12.252;2022-09-09T02:42:27;101104.47;;;24.86;63.49
38786;BME280;24535;45.508;12.252;2022-09-09T02:44:53;101104.69;;;24.84;63.45
38786;BME280;24535;45.508;12.252;2022-09-09T02:47:35;101101.78;;;24.86;63.64
38786;BME280;24535;45.508;12.252;2022-09-09T02:55:35;101103.03;;;24.83;63.22
38786;BME280;24535;45.508;12.252;2022-09-09T02:58:04;101098.00;;;24.80;63.30
38786;BME280;24535;45.508;12.252;2022-09-09T03:00:32;101094.47;;;24.80;63.22
38786;BME280;24535;45.508;12.252;2022-09-09T03:02:58;101102.91;;;24.77;63.24
38786;BME280;24535;45.508;12.252;2022-09-09T03:05:24;101096.88;;;24.75;63.09
38786;BME280;24535;45.508;12.252;2022-09-09T03:07:50;101104.47;;;24.71;63.26
38786;BME280;24535;45.508;12.252;2022-09-09T03:10:16;101103.66;;;24.71;63.22
38786;BME280;24535;45.508;12.252;2022-09-09T03:12:42;101102.19;;;24.68;63.12
38786;BME280;24535;45.508;12.252;2022-09-09T03:15:14;101097.63;;;24.69;63.22
38786;BME280;24535;45.508;12.252;2022-09-09T03:17:40;101094.47;;;24.65;63.05
38786;BME280;24535;45.508;12.252;2022-09-09T03:20:06;101093.34;;;24.59;63.40
38786;BME280;24535;45.508;12.252;2022-09-09T03:22:33;101094.19;;;24.60;63.54
38786;BME280;24535;45.508;12.252;2022-09-09T03:24:59;101094.00;;;24.61;63.73
38786;BME280;24535;45.508;12.252;2022-09-09T03:27:28;101095.03;;;24.60;63.60
38786;BME280;24535;45.508;12.252;2022-09-09T03:29:54;101093.53;;;24.58;63.45
38786;BME280;24535;45.508;12.252;2022-09-09T03:32:21;101097.72;;;24.60;63.63
38786;BME280;24535;45.508;12.252;2022-09-09T03:34:48;101102.06;;;24.61;63.64
38786;BME280;24535;45.508;12.252;2022-09-09T03:37:15;101099.19;;;24.63;63.57
38786;BME280;24535;45.508;12.252;2022-09-09T03:45:59;101092.13;;;24.62;63.85
38786;BME280;24535;45.508;12.252;2022-09-09T03:48:25;101095.50;;;24.64;63.94
38786;BME280;24535;45.508;12.252;2022-09-09T03:50:53;101100.69;;;24.65;63.95
38786;BME280;24535;45.508;12.252;2022-09-09T03:53:22;101086.75;;;24.62;64.01
38786;BME280;24535;45.508;12.252;2022-09-09T03:55:50;101088.81;;;24.60;64.10
38786;BME280;24535;45.508;12.252;2022-09-09T03:58:18;101090.84;;;24.58;64.35
38786;BME280;24535;45.508;12.252;2022-09-09T04:00:53;101081.09;;;24.57;64.54
38786;BME280;24535;45.508;12.252;2022-09-09T04:03:19;101077.72;;;24.55;64.46
38786;BME280;24535;45.508;12.252;2022-09-09T04:05:44;101080.81;;;24.52;64.61
38786;BME280;24535;45.508;12.252;2022-09-09T04:08:10;101074.75;;;24.50;64.70
38786;BME280;24535;45.508;12.252;2022-09-09T04:10:36;101074.75;;;24.50;64.71
38786;BME280;24535;45.508;12.252;2022-09-09T04:13:04;101074.97;;;24.48;64.93
38786;BME280;24535;45.508;12.252;2022-09-09T04:15:30;101080.81;;;24.52;64.86
38786;BME280;24535;45.508;12.252;2022-09-09T04:17:55;101078.94;;;24.52;64.69
38786;BME280;24535;45.508;12.252;2022-09-09T04:20:21;101078.28;;;24.50;64.75
38786;BME280;24535;45.508;12.252;2022-09-09T04:22:47;101074.75;;;24.50;64.63
38786;BME280;24535;45.508;12.252;2022-09-09T04:25:13;101076.63;;;24.49;64.88
38786;BME280;24535;45.508;12.252;2022-09-09T04:27:39;101075.91;;;24.55;65.00
38786;BME280;24535;45.508;12.252;2022-09-09T04:30:05;101076.06;;;24.54;64.97
38786;BME280;24535;45.508;12.252;2022-09-09T04:32:33;101076.72;;;24.56;64.89
38786;BME280;24535;45.508;12.252;2022-09-09T04:34:59;101071.50;;;24.54;64.94
38786;BME280;24535;45.508;12.252;2022-09-09T04:37:24;101079.41;;;24.56;64.85
38786;BME280;24535;45.508;12.252;2022-09-09T04:39:50;101078.59;;;24.55;64.59
38786;BME280;24535;45.508;12.252;2022-09-09T04:42:15;101069.63;;;24.55;64.66
38786;BME280;24535;45.508;12.252;2022-09-09T04:44:43;101074.66;;;24.58;64.59
38786;BME280;24535;45.508;12.252;2022-09-09T04:49:40;101074.59;;;24.51;64.72
38786;BME280;24535;45.508;12.252;2022-09-09T04:52:06;101072.53;;;24.53;64.98
38786;BME280;24535;45.508;12.252;2022-09-09T04:54:31;101072.72;;;24.52;64.30
38786;BME280;24535;45.508;12.252;2022-09-09T04:56:57;101066.22;;;24.46;64.57
38786;BME280;24535;45.508;12.252;2022-09-09T04:59:22;101068.53;;;24.49;64.60
38786;BME280;24535;45.508;12.252;2022-09-09T05:01:48;101062.69;;;24.46;65.00
38786;BME280;24535;45.508;12.252;2022-09-09T05:04:15;101069.09;;;24.45;64.69
38786;BME280;24535;45.508;12.252;2022-09-09T05:06:41;101072.44;;;24.47;64.88
38786;BME280;24535;45.508;12.252;2022-09-09T05:09:13;101072.81;;;24.44;64.82
38786;BME280;24535;45.508;12.252;2022-09-09T05:11:39;101065.75;;;24.42;65.08
38786;BME280;24535;45.508;12.252;2022-09-09T05:14:04;101076.50;;;24.42;64.72
38786;BME280;24535;45.508;12.252;2022-09-09T05:16:30;101086.94;;;24.46;64.81
38786;BME280;24535;45.508;12.252;2022-09-09T05:18:56;101078.84;;;24.46;64.58
38786;BME280;24535;45.508;12.252;2022-09-09T05:21:23;101083.41;;;24.45;64.71
38786;BME280;24535;45.508;12.252;2022-09-09T05:23:49;101085.91;;;24.47;64.94
38786;BME280;24535;45.508;12.252;2022-09-09T05:26:18;101075.13;;;24.47;64.93
38786;BME280;24535;45.508;12.252;2022-09-09T05:29:05;101076.63;;;24.49;64.99
38786;BME280;24535;45.508;12.252;2022-09-09T05:31:31;101077.47;;;24.50;64.94
38786;BME280;24535;45.508;12.252;2022-09-09T05:33:57;101069.38;;;24.50;65.26
38786;BME280;24535;45.508;12.252;2022-09-09T05:36:24;101076.06;;;24.54;64.85
38786;BME280;24535;45.508;12.252;2022-09-09T05:38:50;101070.50;;;24.55;64.48
38786;BME280;24535;45.508;12.252;2022-09-09T05:41:16;101080.25;;;24.56;64.66
38786;BME280;24535;45.508;12.252;2022-09-09T05:43:43;101078.03;;;24.60;64.64
38786;BME280;24535;45.508;12.252;2022-09-09T05:46:20;101088.25;;;24.64;64.81
38786;BME280;24535;45.508;12.252;2022-09-09T05:48:47;101082.09;;;24.71;64.68
38786;BME280;24535;45.508;12.252;2022-09-09T05:51:25;101085.72;;;24.78;64.68
38786;BME280;24535;45.508;12.252;2022-09-09T05:53:52;101095.09;;;24.82;64.52
38786;BME280;24535;45.508;12.252;2022-09-09T05:56:22;101101.63;;;24.87;64.14
38786;BME280;24535;45.508;12.252;2022-09-09T05:58:54;101093.81;;;24.92;64.11
38786;BME280;24535;45.508;12.252;2022-09-09T06:01:38;101098.88;;;25.02;63.84
38786;BME280;24535;45.508;12.252;2022-09-09T06:04:05;101103.25;;;25.03;63.71
38786;BME280;24535;45.508;12.252;2022-09-09T06:06:33;101100.84;;;25.08;63.79
38786;BME280;24535;45.508;12.252;2022-09-09T06:09:04;101097.97;;;25.10;63.85
38786;BME280;24535;45.508;12.252;2022-09-09T06:11:32;101095.28;;;25.10;63.71
38786;BME280;24535;45.508;12.252;2022-09-09T06:13:59;101086.44;;;25.16;63.51
38786;BME280;24535;45.508;12.252;2022-09-09T06:16:26;101087.28;;;25.17;63.64
38786;BME280;24535;45.508;12.252;2022-09-09T06:18:53;101092.25;;;25.20;63.50
38786;BME280;24535;45.508;12.252;2022-09-09T06:21:25;101079.66;;;25.20;63.54
38786;BME280;24535;45.508;12.252;2022-09-09T06:23:51;101089.75;;;25.33;63.30
38786;BME280;24535;45.508;12.252;2022-09-09T06:29:15;101088.22;;;25.45;62.93
38786;BME280;24535;45.508;12.252;2022-09-09T06:31:41;101077.03;;;25.48;63.16
38786;BME280;24535;45.508;12.252;2022-09-09T06:34:08;101083.31;;;25.55;63.21
38786;BME280;24535;45.508;12.252;2022-09-09T06:36:39;101076.34;;;25.61;63.04
38786;BME280;24535;45.508;12.252;2022-09-09T06:46:03;101080.25;;;25.80;62.79
38786;BME280;24535;45.508;12.252;2022-09-09T06:48:29;101077.63;;;25.86;62.69
38786;BME280;24535;45.508;12.252;2022-09-09T06:51:06;101083.09;;;25.93;62.48
38786;BME280;24535;45.508;12.252;2022-09-09T06:53:33;101086.63;;;25.94;62.58
38786;BME280;24535;45.508;12.252;2022-09-09T06:56:18;101073.97;;;25.94;62.49
38786;BME280;24535;45.508;12.252;2022-09-09T06:58:44;101079.16;;;25.96;62.55
38786;BME280;24535;45.508;12.252;2022-09-09T07:01:16;101073.59;;;26.04;62.39
38786;BME280;24535;45.508;12.252;2022-09-09T07:03:46;101070.59;;;26.13;62.48
38786;BME280;24535;45.508;12.252;2022-09-09T07:06:24;101063.78;;;26.24;62.03
38786;BME280;24535;45.508;12.252;2022-09-09T07:08:54;101067.81;;;26.35;61.98
38786;BME280;24535;45.508;12.252;2022-09-09T07:11:37;101061.06;;;26.46;61.82
38786;BME280;24535;45.508;12.252;2022-09-09T07:14:03;101066.31;;;26.54;61.91
38786;BME280;24535;45.508;12.252;2022-09-09T07:16:29;101065.88;;;26.57;61.42
38786;BME280;24535;45.508;12.252;2022-09-09T07:22:18;101063.28;;;26.77;61.21
38786;BME280;24535;45.508;12.252;2022-09-09T07:25:24;101064.09;;;26.77;60.98
38786;BME280;24535;45.508;12.252;2022-09-09T07:27:53;101061.00;;;26.80;60.94
38786;BME280;24535;45.508;12.252;2022-09-09T07:30:20;101054.97;;;26.78;61.24
38786;BME280;24535;45.508;12.252;2022-09-09T07:32:53;101060.38;;;26.78;60.73
38786;BME280;24535;45.508;12.252;2022-09-09T07:35:19;101066.59;;;26.72;61.06
38786;BME280;24535;45.508;12.252;2022-09-09T07:37:45;101051.56;;;26.63;61.31
38786;BME280;24535;45.508;12.252;2022-09-09T07:40:10;101061.75;;;26.61;60.84
38786;BME280;24535;45.508;12.252;2022-09-09T07:42:36;101063.63;;;26.60;61.12
38786;BME280;24535;45.508;12.252;2022-09-09T07:45:05;101064.88;;;26.58;61.20
38786;BME280;24535;45.508;12.252;2022-09-09T07:47:31;101072.56;;;26.61;61.25
38786;BME280;24535;45.508;12.252;2022-09-09T07:49:56;101076.09;;;26.61;60.69
38786;BME280;24535;45.508;12.252;2022-09-09T07:52:22;101073.63;;;26.67;60.90
38786;BME280;24535;45.508;12.252;2022-09-09T07:54:47;101077.41;;;26.72;60.75
38786;BME280;24535;45.508;12.252;2022-09-09T07:57:13;101066.63;;;26.79;60.61
38786;BME280;24535;45.508;12.252;2022-09-09T07:59:38;101065.63;;;26.86;60.65
38786;BME280;24535;45.508;12.252;2022-09-09T08:02:04;101059.00;;;26.96;60.32
38786;BME280;24535;45.508;12.252;2022-09-09T08:04:30;101061.72;;;27.02;59.73
38786;BME280;24535;45.508;12.252;2022-09-09T08:06:58;101071.97;;;27.14;59.82
38786;BME280;24535;45.508;12.252;2022-09-09T08:09:24;101067.44;;;27.27;59.68
38786;BME280;24535;45.508;12.252;2022-09-09T08:11:59;101068.53;;;27.66;59.69
38786;BME280;24535;45.508;12.252;2022-09-09T08:14:25;101063.78;;;28.15;59.07
38786;BME280;24535;45.508;12.252;2022-09-09T08:16:51;101076.22;;;28.69;57.95
38786;BME280;24535;45.508;12.252;2022-09-09T08:19:18;101068.94;;;29.14;56.41
38786;BME280;24535;45.508;12.252;2022-09-09T08:28:03;101079.22;;;30.62;53.14
38786;BME280;24535;45.508;12.252;2022-09-09T08:30:29;101071.75;;;30.94;51.94
38786;BME280;24535;45.508;12.252;2022-09-09T08:32:55;101075.69;;;31.28;50.99
38786;BME280;24535;45.508;12.252;2022-09-09T08:35:20;101080.66;;;31.62;50.46
38786;BME280;24535;45.508;12.252;2022-09-09T08:37:46;101075.88;;;31.99;49.30
38786;BME280;24535;45.508;12.252;2022-09-09T08:40:22;101089.88;;;32.38;46.68
38786;BME280;24535;45.508;12.252;2022-09-09T08:42:53;101086.09;;;32.62;46.80
38786;BME280;24535;45.508;12.252;2022-09-09T08:45:34;101086.94;;;32.91;45.48
38786;BME280;24535;45.508;12.252;2022-09-09T08:48:48;101082.25;;;33.15;44.69
38786;BME280;24535;45.508;12.252;2022-09-09T08:51:18;101088.44;;;33.39;45.22
38786;BME280;24535;45.508;12.252;2022-09-09T08:56:40;101093.72;;;33.75;44.49
38786;BME280;24535;45.508;12.252;2022-09-09T08:59:05;101101.84;;;33.86;44.12
38786;BME280;24535;45.508;12.252;2022-09-09T09:12:54;101101.00;;;33.86;43.39
38786;BME280;24535;45.508;12.252;2022-09-09T09:15:40;101101.34;;;33.72;42.10
38786;BME280;24535;45.508;12.252;2022-09-09T09:18:09;101102.84;;;33.63;43.17
38786;BME280;24535;45.508;12.252;2022-09-09T09:21:06;101109.28;;;33.57;42.19
38786;BME280;24535;45.508;12.252;2022-09-09T09:23:45;101106.47;;;33.52;41.47
38786;BME280;24535;45.508;12.252;2022-09-09T09:26:21;101089.72;;;33.49;42.17
38786;BME280;24535;45.508;12.252;2022-09-09T09:28:48;101089.00;;;33.41;42.86
38786;BME280;24535;45.508;12.252;2022-09-09T09:31:13;101088.97;;;33.25;43.17
38786;BME280;24535;45.508;12.252;2022-09-09T09:33:52;101089.41;;;33.05;42.63
38786;BME280;24535;45.508;12.252;2022-09-09T09:36:51;101075.59;;;32.83;42.74
38786;BME280;24535;45.508;12.252;2022-09-09T09:39:25;101080.25;;;32.70;42.50
38786;BME280;24535;45.508;12.252;2022-09-09T09:41:52;101077.91;;;32.62;42.94
38786;BME280;24535;45.508;12.252;2022-09-09T09:44:30;101075.75;;;32.53;43.19
38786;BME280;24535;45.508;12.252;2022-09-09T09:47:11;101069.34;;;32.35;42.63
38786;BME280;24535;45.508;12.252;2022-09-09T09:49:37;101070.81;;;32.26;43.76
38786;BME280;24535;45.508;12.252;2022-09-09T09:52:04;101071.72;;;32.20;43.97
38786;BME280;24535;45.508;12.252;2022-09-09T09:54:38;101074.59;;;32.13;43.77
38786;BME280;24535;45.508;12.252;2022-09-09T10:00:29;101064.03;;;31.93;43.50
38786;BME280;24535;45.508;12.252;2022-09-09T10:02:54;101066.28;;;31.85;43.82
38786;BME280;24535;45.508;12.252;2022-09-09T10:05:23;101059.47;;;31.75;43.91
38786;BME280;24535;45.508;12.252;2022-09-09T10:08:09;101060.06;;;31.66;44.22
38786;BME280;24535;45.508;12.252;2022-09-09T10:11:02;101055.66;;;31.53;44.59
38786;BME280;24535;45.508;12.252;2022-09-09T10:13:41;101072.34;;;31.45;44.74
38786;BME280;24535;45.508;12.252;2022-09-09T10:16:29;101067.31;;;31.30;44.44
38786;BME280;24535;45.508;12.252;2022-09-09T10:19:02;101057.13;;;31.07;44.76
38786;BME280;24535;45.508;12.252;2022-09-09T10:21:37;101062.19;;;30.92;45.04
38786;BME280;24535;45.508;12.252;2022-09-09T10:30:07;101059.97;;;30.45;46.06
38786;BME280;24535;45.508;12.252;2022-09-09T10:33:20;101053.03;;;30.31;46.24
38786;BME280;24535;45.508;12.252;2022-09-09T10:38:45;101053.63;;;30.08;46.46
38786;BME280;24535;45.508;12.252;2022-09-09T10:52:53;101071.44;;;29.79;47.38
38786;BME280;24535;45.508;12.252;2022-09-09T10:55:39;101068.78;;;29.72;47.50
38786;BME280;24535;45.508;12.252;2022-09-09T10:58:30;101070.94;;;29.64;47.65
38786;BME280;24535;45.508;12.252;2022-09-09T11:01:06;101073.69;;;29.57;48.03
38786;BME280;24535;45.508;12.252;2022-09-09T11:03:35;101080.22;;;29.49;47.85
38786;BME280;24535;45.508;12.252;2022-09-09T11:06:09;101081.69;;;29.45;47.68
38786;BME280;24535;45.508;12.252;2022-09-09T11:08:39;101077.78;;;29.35;47.93
38786;BME280;24535;45.508;12.252;2022-09-09T11:24:45;101081.69;;;29.07;48.09
38786;BME280;24535;45.508;12.252;2022-09-09T11:27:26;101078.75;;;29.08;48.60
38786;BME280;24535;45.508;12.252;2022-09-09T11:41:35;101068.13;;;29.07;48.75
38786;BME280;24535;45.508;12.252;2022-09-09T11:44:13;101062.31;;;29.03;49.07
38786;BME280;24535;45.508;12.252;2022-09-09T11:46:43;101068.78;;;29.02;49.26
38786;BME280;24535;45.508;12.252;2022-09-09T11:49:40;101052.09;;;28.99;49.67
38786;BME280;24535;45.508;12.252;2022-09-09T11:52:39;101062.94;;;28.99;49.58
38786;BME280;24535;45.508;12.252;2022-09-09T11:58:02;101038.53;;;28.99;49.53
38786;BME280;24535;45.508;12.252;2022-09-09T12:00:54;101041.88;;;29.01;49.42
38786;BME280;24535;45.508;12.252;2022-09-09T12:03:43;101038.94;;;28.96;49.78
38786;BME280;24535;45.508;12.252;2022-09-09T12:08:44;101031.88;;;28.88;49.20
38786;BME280;24535;45.508;12.252;2022-09-09T12:14:59;101047.31;;;28.88;48.56
38786;BME280;24535;45.508;12.252;2022-09-09T12:17:31;101052.97;;;28.86;49.04
38786;BME280;24535;45.508;12.252;2022-09-09T12:20:23;101046.50;;;28.87;49.13
38786;BME280;24535;45.508;12.252;2022-09-09T12:28:51;101047.13;;;28.82;50.58
38786;BME280;24535;45.508;12.252;2022-09-09T12:34:27;101041.72;;;28.76;50.47
38786;BME280;24535;45.508;12.252;2022-09-09T12:37:14;101048.22;;;28.75;50.54
38786;BME280;24535;45.508;12.252;2022-09-09T12:39:55;101051.75;;;28.75;50.32
38786;BME280;24535;45.508;12.252;2022-09-09T12:42:22;101050.72;;;28.76;50.33
38786;BME280;24535;45.508;12.252;2022-09-09T12:44:59;101063.44;;;28.76;50.41
38786;BME280;24535;45.508;12.252;2022-09-09T12:47:41;101053.44;;;28.76;50.63
38786;BME280;24535;45.508;12.252;2022-09-09T12:50:29;101044.84;;;28.79;50.67
38786;BME280;24535;45.508;12.252;2022-09-09T12:59:34;101041.13;;;28.80;50.98
38786;BME280;24535;45.508;12.252;2022-09-09T13:02:00;101040.25;;;28.80;50.89
38786;BME280;24535;45.508;12.252;2022-09-09T13:04:26;101040.88;;;28.82;51.01
38786;BME280;24535;45.508;12.252;2022-09-09T13:06:52;101035.22;;;28.83;51.18
38786;BME280;24535;45.508;12.252;2022-09-09T13:09:18;101046.91;;;28.84;50.90
38786;BME280;24535;45.508;12.252;2022-09-09T13:11:51;101040.25;;;28.80;50.70
38786;BME280;24535;45.508;12.252;2022-09-09T13:14:38;101037.78;;;28.78;50.74
38786;BME280;24535;45.508;12.252;2022-09-09T13:17:20;101037.34;;;28.81;50.91
38786;BME280;24535;45.508;12.252;2022-09-09T13:19:47;101036.06;;;28.84;50.63
38786;BME280;24535;45.508;12.252;2022-09-09T13:22:16;101043.56;;;28.89;50.93
38786;BME280;24535;45.508;12.252;2022-09-09T13:29:56;101035.22;;;28.97;50.60
38786;BME280;24535;45.508;12.252;2022-09-09T13:32:26;101035.41;;;29.02;50.30
38786;BME280;24535;45.508;12.252;2022-09-09T13:35:01;101043.09;;;29.05;50.62
38786;BME280;24535;45.508;12.252;2022-09-09T13:37:34;101040.59;;;29.03;50.30
38786;BME280;24535;45.508;12.252;2022-09-09T13:40:03;101041.22;;;29.05;50.80
38786;BME280;24535;45.508;12.252;2022-09-09T13:42:32;101039.34;;;29.06;50.54
38786;BME280;24535;45.508;12.252;2022-09-09T13:45:00;101045.38;;;29.08;50.52
38786;BME280;24535;45.508;12.252;2022-09-09T13:47:33;101043.09;;;29.05;50.29
38786;BME280;24535;45.508;12.252;2022-09-09T13:53:00;101060.22;;;29.05;50.64
38786;BME280;24535;45.508;12.252;2022-09-09T13:55:30;101056.03;;;29.03;50.70
38786;BME280;24535;45.508;12.252;2022-09-09T13:58:00;101055.00;;;29.04;50.65
38786;BME280;24535;45.508;12.252;2022-09-09T14:00:29;101055.81;;;29.04;51.16
38786;BME280;24535;45.508;12.252;2022-09-09T14:02:55;101059.19;;;29.00;50.97
38786;BME280;24535;45.508;12.252;2022-09-09T14:05:21;101065.44;;;29.00;51.05
38786;BME280;24535;45.508;12.252;2022-09-09T14:07:48;101062.53;;;28.95;51.33
38786;BME280;24535;45.508;12.252;2022-09-09T14:10:14;101065.06;;;28.90;51.30
38786;BME280;24535;45.508;12.252;2022-09-09T14:12:39;101061.53;;;28.83;51.53
38786;BME280;24535;45.508;12.252;2022-09-09T14:15:06;101049.44;;;28.79;51.66
38786;BME280;24535;45.508;12.252;2022-09-09T14:17:33;101038.19;;;28.75;52.22
38786;BME280;24535;45.508;12.252;2022-09-09T14:19:59;101031.81;;;28.56;51.97
38786;BME280;24535;45.508;12.252;2022-09-09T14:22:24;101012.91;;;28.37;52.48
38786;BME280;24535;45.508;12.252;2022-09-09T14:25:21;101019.53;;;28.27;52.93
38786;BME280;24535;45.508;12.252;2022-09-09T14:27:47;101012.28;;;28.21;53.21
38786;BME280;24535;45.508;12.252;2022-09-09T14:30:12;101005.22;;;28.20;53.45
38786;BME280;24535;45.508;12.252;2022-09-09T14:32:41;101019.53;;;28.27;53.78
38786;BME280;24535;45.508;12.252;2022-09-09T14:35:06;101017.69;;;28.28;53.65
38786;BME280;24535;45.508;12.252;2022-09-09T14:37:32;101013.75;;;28.24;53.21
38786;BME280;24535;45.508;12.252;2022-09-09T14:39:58;101015.19;;;28.26;53.41
38786;BME280;24535;45.508;12.252;2022-09-09T14:42:39;101008.09;;;28.25;53.31
38786;BME280;24535;45.508;12.252;2022-09-09T14:45:06;101011.03;;;28.24;53.50
38786;BME280;24535;45.508;12.252;2022-09-09T14:47:32;101008.09;;;28.25;53.09
38786;BME280;24535;45.508;12.252;2022-09-09T14:56:08;101010.41;;;28.28;52.81
38786;BME280;24535;45.508;12.252;2022-09-09T14:58:35;101010.00;;;28.18;52.51
38786;BME280;24535;45.508;12.252;2022-09-09T15:01:09;101012.91;;;28.17;53.02
38786;BME280;24535;45.508;12.252;2022-09-09T15:03:39;101012.28;;;28.15;53.08
38786;BME280;24535;45.508;12.252;2022-09-09T15:06:10;101015.63;;;28.17;53.71
38786;BME280;24535;45.508;12.252;2022-09-09T15:08:37;101017.06;;;28.19;53.29
38786;BME280;24535;45.508;12.252;2022-09-09T15:11:03;101018.75;;;28.20;53.35
38786;BME280;24535;45.508;12.252;2022-09-09T15:13:30;101018.53;;;28.28;53.17
38786;BME280;24535;45.508;12.252;2022-09-09T15:15:55;101013.53;;;28.25;52.64
38786;BME280;24535;45.508;12.252;2022-09-09T15:18:23;101019.97;;;28.31;52.25
38786;BME280;24535;45.508;12.252;2022-09-09T15:20:48;101020.78;;;28.31;52.32
38786;BME280;24535;45.508;12.252;2022-09-09T15:23:14;101019.34;;;28.29;51.86
38786;BME280;24535;45.508;12.252;2022-09-09T15:25:52;101006.22;;;28.26;52.18
38786;BME280;24535;45.508;12.252;2022-09-09T15:28:21;101014.34;;;28.32;51.90
38786;BME280;24535;45.508;12.252;2022-09-09T15:30:50;101013.72;;;28.30;52.09
38786;BME280;24535;45.508;12.252;2022-09-09T15:33:18;101007.47;;;28.37;51.80
38786;BME280;24535;45.508;12.252;2022-09-09T15:35:43;101008.91;;;28.39;51.38
38786;BME280;24535;45.508;12.252;2022-09-09T15:38:09;101011.03;;;28.37;51.72
38786;BME280;24535;45.508;12.252;2022-09-09T15:40:55;101010.19;;;28.37;51.79
38786;BME280;24535;45.508;12.252;2022-09-09T15:43:23;101011.84;;;28.38;51.88
38786;BME280;24535;45.508;12.252;2022-09-09T15:45:59;101015.63;;;28.37;52.14
38786;BME280;24535;45.508;12.252;2022-09-09T15:48:31;101019.97;;;28.38;52.25
38786;BME280;24535;45.508;12.252;2022-09-09T15:51:05;101016.84;;;28.34;51.94
38786;BME280;24535;45.508;12.252;2022-09-09T15:53:30;101018.50;;;28.35;52.28
38786;BME280;24535;45.508;12.252;2022-09-09T15:55:58;101024.16;;;28.40;52.35